Airfield :







YOU CAN JOIN US ON...

 
LOGIN :

Register | Disclaimer

   EN    FR    IT 

 









Legend :    VFR   Marginal VFR   IFR   Intensive IFR   Very Intensive IFR
Visi :
Ceiling :
>= 8 km
>= 3000ft
5 to 8 km
1000 to 3000 ft
1500m to 5 km
500 to 1000 ft
800 to 1500m
200 to 500 ft
< 800m
< 200 ft
Symbols :   Thunderstorms  Fog  Heavy snow  Heavy precipitations  Wind > 20 kt






- Airport Elevation : 461 ft
- IATA code : YYT


CYYT - St John's Int

CURRENT METAR :
  • 220100Z 27013G18KT 15SM FEW030 BKN240 16/13 A2986 RMK SC1CI5 SC TR SLP114 DENSITY ALT 800FT

EXPIRED METARs :
  • 220000Z 26010KT 15SM FEW030 SCT240 17/14 A2983 RMK SC1CI3 SC TR SLP105 DENSITY ALT 900FT
  • 212300Z 27012KT 15SM FEW040 SCT240 18/14 A2982 RMK SC1CI2 SLP102 DENSITY ALT 1100FT

TAF TAF CYYT
Valid from the 22 at 00:00 until the 23 at 00:00 UTC


212338Z 2200/2224 27012KT P6SM FEW040 SCT240
FM220600 27012KT P6SM SKC
FM221400 27012G22KT P6SM SCT150
BECMG 2216/2218 26015G25KT RMK NXT FCST BY 220600Z
CZQX FIR / North America



MET'MAP, your aeronautical weather chart ! - Copyright ORBIFLY December 2007 - Disclaimer

ORBIFLY MET'MAP TEAM :

Programming & Development : Alexandra Zaïnal
Concept & original design : Baudouin d'Aumeries
Assistance for programming : Marc-Olivier Méhu
Technical & hardware support : Manuel Goepfert

Contact : metmap@orbifly.com




SOURCES & CREDITS :

   NOAA